sensor_id;sensor_type;location;lat;lon;timestamp;pressure;altitude;pressure_sealevel;temperature;humidity
16690;BME280;8458;52.220;9.884;2023-05-24T00:00:13;101388.91;;;9.93;76.04
16690;BME280;8458;52.220;9.884;2023-05-24T00:02:40;101385.53;;;9.91;76.25
16690;BME280;8458;52.220;9.884;2023-05-24T00:05:07;101389.38;;;9.90;76.05
16690;BME280;8458;52.220;9.884;2023-05-24T00:07:34;101392.06;;;9.84;76.03
16690;BME280;8458;52.220;9.884;2023-05-24T00:10:00;101388.44;;;9.84;76.30
16690;BME280;8458;52.220;9.884;2023-05-24T00:12:27;101384.81;;;9.83;76.27
16690;BME280;8458;52.220;9.884;2023-05-24T00:14:55;101380.13;;;9.84;76.31
16690;BME280;8458;52.220;9.884;2023-05-24T00:17:21;101386.88;;;9.76;76.37
16690;BME280;8458;52.220;9.884;2023-05-24T00:19:48;101386.88;;;9.64;77.01
16690;BME280;8458;52.220;9.884;2023-05-24T00:22:16;101381.47;;;9.46;77.60
16690;BME280;8458;52.220;9.884;2023-05-24T00:24:45;101388.69;;;9.35;78.26
16690;BME280;8458;52.220;9.884;2023-05-24T00:27:12;101385.56;;;9.31;78.61
16690;BME280;8458;52.220;9.884;2023-05-24T00:29:38;101384.84;;;9.36;78.88
16690;BME280;8458;52.220;9.884;2023-05-24T00:32:06;101384.84;;;9.36;79.62
16690;BME280;8458;52.220;9.884;2023-05-24T00:34:32;101383.03;;;9.42;79.44
16690;BME280;8458;52.220;9.884;2023-05-24T00:36:59;101383.28;;;9.52;79.20
16690;BME280;8458;52.220;9.884;2023-05-24T00:39:25;101367.88;;;9.56;78.88
16690;BME280;8458;52.220;9.884;2023-05-24T00:41:52;101374.34;;;9.62;78.98
16690;BME280;8458;52.220;9.884;2023-05-24T00:44:18;101371.72;;;9.67;79.02
16690;BME280;8458;52.220;9.884;2023-05-24T00:46:45;101374.22;;;9.80;78.45
16690;BME280;8458;52.220;9.884;2023-05-24T00:49:13;101373.72;;;9.83;78.39
16690;BME280;8458;52.220;9.884;2023-05-24T00:51:40;101367.00;;;9.79;78.54
16690;BME280;8458;52.220;9.884;2023-05-24T00:54:07;101368.97;;;9.67;78.98
16690;BME280;8458;52.220;9.884;2023-05-24T00:56:33;101376.88;;;9.75;78.95
16690;BME280;8458;52.220;9.884;2023-05-24T00:59:00;101363.63;;;9.77;78.89
16690;BME280;8458;52.220;9.884;2023-05-24T01:01:27;101362.78;;;9.77;78.94
16690;BME280;8458;52.220;9.884;2023-05-24T01:03:58;101374.34;;;9.74;79.23
16690;BME280;8458;52.220;9.884;2023-05-24T01:06:26;101364.25;;;9.79;79.13
16690;BME280;8458;52.220;9.884;2023-05-24T01:09:07;101358.22;;;9.82;79.30
16690;BME280;8458;52.220;9.884;2023-05-24T01:11:48;101359.88;;;9.83;79.15
16690;BME280;8458;52.220;9.884;2023-05-24T01:14:21;101363.63;;;9.77;79.18
16690;BME280;8458;52.220;9.884;2023-05-24T01:16:54;101361.25;;;9.69;79.65
16690;BME280;8458;52.220;9.884;2023-05-24T01:19:53;101363.75;;;9.71;79.71
16690;BME280;8458;52.220;9.884;2023-05-24T01:22:37;101356.78;;;9.68;79.96
16690;BME280;8458;52.220;9.884;2023-05-24T01:25:11;101353.41;;;9.54;80.37
16690;BME280;8458;52.220;9.884;2023-05-24T01:27:39;101355.47;;;9.47;80.64
16690;BME280;8458;52.220;9.884;2023-05-24T01:30:08;101350.66;;;9.42;80.83
16690;BME280;8458;52.220;9.884;2023-05-24T01:32:35;101352.34;;;9.20;81.78
16690;BME280;8458;52.220;9.884;2023-05-24T01:35:02;101356.69;;;9.15;82.29
16690;BME280;8458;52.220;9.884;2023-05-24T01:37:30;101351.63;;;9.12;82.52
16690;BME280;8458;52.220;9.884;2023-05-24T01:39:56;101344.75;;;9.15;82.68
16690;BME280;8458;52.220;9.884;2023-05-24T01:42:25;101353.19;;;9.20;82.77
16690;BME280;8458;52.220;9.884;2023-05-24T01:45:09;101351.25;;;9.21;82.86
16690;BME280;8458;52.220;9.884;2023-05-24T01:47:51;101353.44;;;9.30;82.86
16690;BME280;8458;52.220;9.884;2023-05-24T01:50:25;101338.03;;;9.35;82.88
16690;BME280;8458;52.220;9.884;2023-05-24T01:52:53;101338.25;;;9.21;83.29
16690;BME280;8458;52.220;9.884;2023-05-24T01:55:21;101347.75;;;9.13;84.04
16690;BME280;8458;52.220;9.884;2023-05-24T01:57:49;101355.72;;;9.22;84.22
16690;BME280;8458;52.220;9.884;2023-05-24T02:00:18;101337.91;;;9.18;84.38
16690;BME280;8458;52.220;9.884;2023-05-24T02:02:46;101338.50;;;9.20;84.92
16690;BME280;8458;52.220;9.884;2023-05-24T02:05:13;101331.91;;;9.21;84.95
16690;BME280;8458;52.220;9.884;2023-05-24T02:07:39;101326.34;;;9.21;85.07
16690;BME280;8458;52.220;9.884;2023-05-24T02:10:07;101319.59;;;9.17;85.13
16690;BME280;8458;52.220;9.884;2023-05-24T02:12:34;101321.66;;;9.09;85.58
16690;BME280;8458;52.220;9.884;2023-05-24T02:15:00;101316.72;;;9.11;85.77
16690;BME280;8458;52.220;9.884;2023-05-24T02:17:28;101322.75;;;9.08;85.88
16690;BME280;8458;52.220;9.884;2023-05-24T02:19:57;101321.06;;;9.19;85.75
16690;BME280;8458;52.220;9.884;2023-05-24T02:22:23;101316.13;;;9.09;85.91
16690;BME280;8458;52.220;9.884;2023-05-24T02:24:50;101317.22;;;9.08;86.28
16690;BME280;8458;52.220;9.884;2023-05-24T02:27:17;101306.25;;;8.90;86.99
16690;BME280;8458;52.220;9.884;2023-05-24T02:29:44;101307.47;;;8.94;87.18
16690;BME280;8458;52.220;9.884;2023-05-24T02:32:11;101303.00;;;8.93;87.44
16690;BME280;8458;52.220;9.884;2023-05-24T02:34:40;101302.66;;;8.89;87.64
16690;BME280;8458;52.220;9.884;2023-05-24T02:37:06;101299.84;;;8.77;87.72
16690;BME280;8458;52.220;9.884;2023-05-24T02:39:33;101299.00;;;8.65;88.72
16690;BME280;8458;52.220;9.884;2023-05-24T02:41:59;101295.94;;;8.55;89.40
16690;BME280;8458;52.220;9.884;2023-05-24T02:44:26;101293.19;;;8.55;89.69
16690;BME280;8458;52.220;9.884;2023-05-24T02:46:52;101293.53;;;8.47;90.52
16690;BME280;8458;52.220;9.884;2023-05-24T02:49:19;101298.91;;;8.41;90.87
16690;BME280;8458;52.220;9.884;2023-05-24T02:51:47;101300.75;;;8.48;90.88
16690;BME280;8458;52.220;9.884;2023-05-24T02:54:13;101295.94;;;8.55;90.72
16690;BME280;8458;52.220;9.884;2023-05-24T02:56:41;101299.53;;;8.43;91.47
16690;BME280;8458;52.220;9.884;2023-05-24T02:59:08;101301.03;;;8.39;91.66
16690;BME280;8458;52.220;9.884;2023-05-24T03:01:35;101294.78;;;8.32;91.90
16690;BME280;8458;52.220;9.884;2023-05-24T03:04:02;101300.63;;;8.24;92.91
16690;BME280;8458;52.220;9.884;2023-05-24T03:06:28;101306.63;;;8.21;93.52
16690;BME280;8458;52.220;9.884;2023-05-24T03:08:56;101320.28;;;8.16;93.89
16690;BME280;8458;52.220;9.884;2023-05-24T03:11:23;101316.84;;;8.20;94.16
16690;BME280;8458;52.220;9.884;2023-05-24T03:13:50;101310.59;;;8.25;93.97
16690;BME280;8458;52.220;9.884;2023-05-24T03:16:16;101312.13;;;8.21;93.79
16690;BME280;8458;52.220;9.884;2023-05-24T03:18:43;101305.69;;;8.27;94.10
16690;BME280;8458;52.220;9.884;2023-05-24T03:21:10;101310.25;;;8.33;93.88
16690;BME280;8458;52.220;9.884;2023-05-24T03:23:36;101305.13;;;8.37;93.65
16690;BME280;8458;52.220;9.884;2023-05-24T03:26:04;101310.25;;;8.33;93.68
16690;BME280;8458;52.220;9.884;2023-05-24T03:28:31;101310.13;;;8.28;93.85
16690;BME280;8458;52.220;9.884;2023-05-24T03:30:58;101309.78;;;8.36;93.92
16690;BME280;8458;52.220;9.884;2023-05-24T03:33:24;101315.94;;;8.38;93.94
16690;BME280;8458;52.220;9.884;2023-05-24T03:35:50;101308.59;;;8.32;94.23
16690;BME280;8458;52.220;9.884;2023-05-24T03:38:17;101312.72;;;8.41;93.97
16690;BME280;8458;52.220;9.884;2023-05-24T03:40:44;101306.09;;;8.42;94.07
16690;BME280;8458;52.220;9.884;2023-05-24T03:43:11;101312.88;;;8.47;93.97
16690;BME280;8458;52.220;9.884;2023-05-24T03:45:38;101312.47;;;8.43;93.98
16690;BME280;8458;52.220;9.884;2023-05-24T03:48:04;101305.50;;;8.40;93.84
16690;BME280;8458;52.220;9.884;2023-05-24T03:50:31;101311.97;;;8.34;94.51
16690;BME280;8458;52.220;9.884;2023-05-24T03:52:58;101321.72;;;8.37;94.49
16690;BME280;8458;52.220;9.884;2023-05-24T03:55:24;101320.78;;;8.43;94.59
16690;BME280;8458;52.220;9.884;2023-05-24T03:57:51;101318.88;;;8.43;94.87
16690;BME280;8458;52.220;9.884;2023-05-24T04:00:19;101324.84;;;8.40;95.51
16690;BME280;8458;52.220;9.884;2023-05-24T04:02:45;101325.63;;;8.48;95.65
16690;BME280;8458;52.220;9.884;2023-05-24T04:05:12;101319.28;;;8.59;95.14
16690;BME280;8458;52.220;9.884;2023-05-24T04:07:39;101323.88;;;8.65;95.05
16690;BME280;8458;52.220;9.884;2023-05-24T04:10:07;101332.19;;;8.77;94.69
16690;BME280;8458;52.220;9.884;2023-05-24T04:12:34;101331.25;;;8.83;94.34
16690;BME280;8458;52.220;9.884;2023-05-24T04:15:00;101333.03;;;8.77;94.26
16690;BME280;8458;52.220;9.884;2023-05-24T04:17:29;101327.78;;;8.88;93.45
16690;BME280;8458;52.220;9.884;2023-05-24T04:19:58;101323.19;;;8.82;93.78
16690;BME280;8458;52.220;9.884;2023-05-24T04:22:25;101327.97;;;8.74;94.29
16690;BME280;8458;52.220;9.884;2023-05-24T04:24:51;101322.56;;;8.68;94.92
16690;BME280;8458;52.220;9.884;2023-05-24T04:27:18;101320.28;;;8.65;95.61
16690;BME280;8458;52.220;9.884;2023-05-24T04:29:45;101326.28;;;8.73;95.88
16690;BME280;8458;52.220;9.884;2023-05-24T04:32:14;101324.25;;;8.81;95.84
16690;BME280;8458;52.220;9.884;2023-05-24T04:34:42;101321.03;;;8.84;95.40
16690;BME280;8458;52.220;9.884;2023-05-24T04:37:10;101318.13;;;8.78;95.44
16690;BME280;8458;52.220;9.884;2023-05-24T04:39:37;101327.88;;;8.81;95.36
16690;BME280;8458;52.220;9.884;2023-05-24T04:42:05;101326.69;;;8.89;95.12
16690;BME280;8458;52.220;9.884;2023-05-24T04:44:31;101326.81;;;8.94;95.19
16690;BME280;8458;52.220;9.884;2023-05-24T04:46:58;101322.72;;;8.85;94.84
16690;BME280;8458;52.220;9.884;2023-05-24T04:49:26;101334.97;;;8.89;95.36
16690;BME280;8458;52.220;9.884;2023-05-24T04:51:54;101333.31;;;9.00;94.74
16690;BME280;8458;52.220;9.884;2023-05-24T04:54:21;101330.66;;;8.93;95.13
16690;BME280;8458;52.220;9.884;2023-05-24T04:56:47;101333.81;;;9.08;94.90
16690;BME280;8458;52.220;9.884;2023-05-24T04:59:14;101329.50;;;9.12;94.62
16690;BME280;8458;52.220;9.884;2023-05-24T05:01:40;101331.31;;;9.19;94.25
16690;BME280;8458;52.220;9.884;2023-05-24T05:04:07;101331.53;;;9.17;94.20
16690;BME280;8458;52.220;9.884;2023-05-24T05:06:33;101330.19;;;9.20;94.23
16690;BME280;8458;52.220;9.884;2023-05-24T05:09:04;101322.53;;;9.22;94.10
16690;BME280;8458;52.220;9.884;2023-05-24T05:11:33;101330.31;;;9.25;94.00
16690;BME280;8458;52.220;9.884;2023-05-24T05:13:59;101329.72;;;9.35;93.70
16690;BME280;8458;52.220;9.884;2023-05-24T05:16:26;101331.41;;;9.36;93.82
16690;BME280;8458;52.220;9.884;2023-05-24T05:18:53;101329.22;;;9.26;93.42
16690;BME280;8458;52.220;9.884;2023-05-24T05:21:19;101331.63;;;9.34;93.11
16690;BME280;8458;52.220;9.884;2023-05-24T05:23:46;101331.03;;;9.32;93.04
16690;BME280;8458;52.220;9.884;2023-05-24T05:26:13;101337.56;;;9.38;93.55
16690;BME280;8458;52.220;9.884;2023-05-24T05:28:40;101337.91;;;9.53;93.75
16690;BME280;8458;52.220;9.884;2023-05-24T05:31:06;101328.03;;;9.45;93.31
16690;BME280;8458;52.220;9.884;2023-05-24T05:33:33;101334.66;;;9.56;93.81
16690;BME280;8458;52.220;9.884;2023-05-24T05:35:59;101336.31;;;9.57;93.99
16690;BME280;8458;52.220;9.884;2023-05-24T05:38:26;101338.34;;;9.62;93.01
16690;BME280;8458;52.220;9.884;2023-05-24T05:40:52;101341.03;;;9.57;92.69
16690;BME280;8458;52.220;9.884;2023-05-24T05:43:20;101324.66;;;9.67;92.19
16690;BME280;8458;52.220;9.884;2023-05-24T05:45:46;101322.94;;;9.78;91.80
16690;BME280;8458;52.220;9.884;2023-05-24T05:48:13;101321.72;;;9.85;90.74
16690;BME280;8458;52.220;9.884;2023-05-24T05:50:39;101332.56;;;9.75;89.95
16690;BME280;8458;52.220;9.884;2023-05-24T05:53:06;101322.22;;;9.82;90.80
16690;BME280;8458;52.220;9.884;2023-05-24T05:55:32;101326.41;;;9.85;90.45
16690;BME280;8458;52.220;9.884;2023-05-24T05:57:59;101322.41;;;9.93;90.26
16690;BME280;8458;52.220;9.884;2023-05-24T06:00:27;101322.28;;;9.99;90.31
16690;BME280;8458;52.220;9.884;2023-05-24T06:02:53;101331.91;;;10.09;90.35
16690;BME280;8458;52.220;9.884;2023-05-24T06:05:20;101335.22;;;10.22;90.98
16690;BME280;8458;52.220;9.884;2023-05-24T06:07:46;101336.06;;;10.35;89.50
16690;BME280;8458;52.220;9.884;2023-05-24T06:10:12;101342.44;;;10.35;88.73
16690;BME280;8458;52.220;9.884;2023-05-24T06:12:39;101344.47;;;10.40;88.32
16690;BME280;8458;52.220;9.884;2023-05-24T06:15:06;101337.75;;;10.53;88.06
16690;BME280;8458;52.220;9.884;2023-05-24T06:17:35;101347.31;;;10.74;87.54
16690;BME280;8458;52.220;9.884;2023-05-24T06:20:02;101348.88;;;10.70;85.71
16690;BME280;8458;52.220;9.884;2023-05-24T06:22:37;101351.09;;;10.68;85.76
16690;BME280;8458;52.220;9.884;2023-05-24T06:25:04;101347.88;;;10.76;85.83
16690;BME280;8458;52.220;9.884;2023-05-24T06:27:31;101361.19;;;10.91;85.76
16690;BME280;8458;52.220;9.884;2023-05-24T06:29:58;101351.38;;;11.00;85.81
16690;BME280;8458;52.220;9.884;2023-05-24T06:32:24;101357.84;;;11.06;83.67
16690;BME280;8458;52.220;9.884;2023-05-24T06:34:52;101348.00;;;11.15;83.80
16690;BME280;8458;52.220;9.884;2023-05-24T06:37:18;101354.16;;;11.17;83.31
16690;BME280;8458;52.220;9.884;2023-05-24T06:39:49;101353.97;;;11.24;82.93
16690;BME280;8458;52.220;9.884;2023-05-24T06:42:16;101352.03;;;11.24;83.10
16690;BME280;8458;52.220;9.884;2023-05-24T06:44:42;101337.47;;;11.34;82.33
16690;BME280;8458;52.220;9.884;2023-05-24T06:47:09;101346.72;;;11.40;82.04
16690;BME280;8458;52.220;9.884;2023-05-24T06:49:35;101338.06;;;11.36;81.75
16690;BME280;8458;52.220;9.884;2023-05-24T06:52:03;101330.56;;;11.37;81.41
16690;BME280;8458;52.220;9.884;2023-05-24T06:54:31;101354.97;;;11.35;81.58
16690;BME280;8458;52.220;9.884;2023-05-24T06:56:58;101352.38;;;11.45;82.02
16690;BME280;8458;52.220;9.884;2023-05-24T06:59:24;101362.00;;;11.59;81.25
16690;BME280;8458;52.220;9.884;2023-05-24T07:01:51;101370.41;;;11.64;80.72
16690;BME280;8458;52.220;9.884;2023-05-24T07:04:21;101366.47;;;11.60;80.42
16690;BME280;8458;52.220;9.884;2023-05-24T07:06:48;101369.25;;;11.60;80.42
16690;BME280;8458;52.220;9.884;2023-05-24T07:09:16;101373.69;;;11.61;80.65
16690;BME280;8458;52.220;9.884;2023-05-24T07:11:43;101377.31;;;11.79;79.49
16690;BME280;8458;52.220;9.884;2023-05-24T07:14:09;101375.63;;;11.78;79.23
16690;BME280;8458;52.220;9.884;2023-05-24T07:16:35;101371.25;;;11.82;79.46
16690;BME280;8458;52.220;9.884;2023-05-24T07:19:02;101373.09;;;11.93;79.19
16690;BME280;8458;52.220;9.884;2023-05-24T07:21:28;101372.94;;;12.05;79.73
16690;BME280;8458;52.220;9.884;2023-05-24T07:23:55;101367.66;;;11.87;78.40
16690;BME280;8458;52.220;9.884;2023-05-24T07:26:23;101370.06;;;11.78;79.02
16690;BME280;8458;52.220;9.884;2023-05-24T07:28:50;101373.50;;;11.85;79.84
16690;BME280;8458;52.220;9.884;2023-05-24T07:31:17;101384.28;;;11.81;79.64
16690;BME280;8458;52.220;9.884;2023-05-24T07:33:43;101389.75;;;11.93;79.62
16690;BME280;8458;52.220;9.884;2023-05-24T07:36:09;101396.31;;;11.87;79.31
16690;BME280;8458;52.220;9.884;2023-05-24T07:38:36;101394.81;;;11.79;79.08
16690;BME280;8458;52.220;9.884;2023-05-24T07:41:03;101397.69;;;11.68;78.71
16690;BME280;8458;52.220;9.884;2023-05-24T07:43:33;101391.47;;;11.77;78.61
16690;BME280;8458;52.220;9.884;2023-05-24T07:46:01;101397.34;;;11.81;78.96
16690;BME280;8458;52.220;9.884;2023-05-24T07:48:28;101395.84;;;11.73;78.87
16690;BME280;8458;52.220;9.884;2023-05-24T07:50:54;101406.09;;;11.73;79.67
16690;BME280;8458;52.220;9.884;2023-05-24T07:53:21;101392.59;;;11.81;79.85
16690;BME280;8458;52.220;9.884;2023-05-24T07:55:48;101399.41;;;11.91;79.60
16690;BME280;8458;52.220;9.884;2023-05-24T07:58:14;101393.16;;;12.00;79.75
16690;BME280;8458;52.220;9.884;2023-05-24T08:00:42;101391.88;;;12.08;80.08
16690;BME280;8458;52.220;9.884;2023-05-24T08:03:09;101395.56;;;12.14;78.18
16690;BME280;8458;52.220;9.884;2023-05-24T08:05:38;101402.22;;;12.13;77.64
16690;BME280;8458;52.220;9.884;2023-05-24T08:08:05;101401.72;;;12.16;77.73
16690;BME280;8458;52.220;9.884;2023-05-24T08:10:31;101400.34;;;11.96;78.14
16690;BME280;8458;52.220;9.884;2023-05-24T08:12:58;101393.84;;;12.08;79.02
16690;BME280;8458;52.220;9.884;2023-05-24T08:15:24;101402.53;;;11.94;77.87
16690;BME280;8458;52.220;9.884;2023-05-24T08:17:52;101412.97;;;11.87;78.32
16690;BME280;8458;52.220;9.884;2023-05-24T08:20:18;101412.47;;;11.90;78.68
16690;BME280;8458;52.220;9.884;2023-05-24T08:22:45;101413.06;;;11.92;79.52
16690;BME280;8458;52.220;9.884;2023-05-24T08:25:12;101408.44;;;11.81;77.86
16690;BME280;8458;52.220;9.884;2023-05-24T08:27:39;101413.56;;;11.89;78.22
16690;BME280;8458;52.220;9.884;2023-05-24T08:30:06;101408.25;;;11.88;78.33
16690;BME280;8458;52.220;9.884;2023-05-24T08:32:33;101417.09;;;12.01;78.14
16690;BME280;8458;52.220;9.884;2023-05-24T08:35:01;101405.72;;;12.03;79.13
16690;BME280;8458;52.220;9.884;2023-05-24T08:37:28;101411.94;;;12.10;78.82
16690;BME280;8458;52.220;9.884;2023-05-24T08:39:56;101425.44;;;12.01;80.89
16690;BME280;8458;52.220;9.884;2023-05-24T08:42:23;101417.53;;;11.76;84.52
16690;BME280;8458;52.220;9.884;2023-05-24T08:44:52;101427.34;;;11.45;88.89
16690;BME280;8458;52.220;9.884;2023-05-24T08:47:24;101426.47;;;11.44;90.71
16690;BME280;8458;52.220;9.884;2023-05-24T08:49:52;101427.00;;;11.41;92.85
16690;BME280;8458;52.220;9.884;2023-05-24T08:52:21;101429.00;;;11.46;94.27
16690;BME280;8458;52.220;9.884;2023-05-24T08:54:48;101433.91;;;11.39;94.70
16690;BME280;8458;52.220;9.884;2023-05-24T08:57:15;101441.81;;;11.47;94.81
16690;BME280;8458;52.220;9.884;2023-05-24T08:59:43;101436.00;;;11.48;95.12
16690;BME280;8458;52.220;9.884;2023-05-24T09:02:12;101443.50;;;11.48;96.39
16690;BME280;8458;52.220;9.884;2023-05-24T09:04:40;101436.94;;;11.54;95.42
16690;BME280;8458;52.220;9.884;2023-05-24T09:07:08;101435.50;;;11.52;94.45
16690;BME280;8458;52.220;9.884;2023-05-24T09:09:42;101440.28;;;11.56;94.41
16690;BME280;8458;52.220;9.884;2023-05-24T09:12:10;101447.03;;;11.60;94.58
16690;BME280;8458;52.220;9.884;2023-05-24T09:14:40;101440.88;;;11.58;94.29
16690;BME280;8458;52.220;9.884;2023-05-24T09:17:11;101446.34;;;11.53;94.64
16690;BME280;8458;52.220;9.884;2023-05-24T09:19:42;101447.88;;;11.44;94.83
16690;BME280;8458;52.220;9.884;2023-05-24T09:22:09;101449.38;;;11.52;94.81
16690;BME280;8458;52.220;9.884;2023-05-24T09:24:41;101454.75;;;11.58;94.38
16690;BME280;8458;52.220;9.884;2023-05-24T09:27:07;101454.63;;;11.65;94.25
16690;BME280;8458;52.220;9.884;2023-05-24T09:29:34;101451.91;;;11.53;94.52
16690;BME280;8458;52.220;9.884;2023-05-24T09:32:01;101446.34;;;11.53;94.53
16690;BME280;8458;52.220;9.884;2023-05-24T09:34:29;101450.06;;;11.42;94.41
16690;BME280;8458;52.220;9.884;2023-05-24T09:37:03;101453.94;;;11.41;94.54
16690;BME280;8458;52.220;9.884;2023-05-24T09:39:30;101455.69;;;11.30;95.62
16690;BME280;8458;52.220;9.884;2023-05-24T09:41:58;101460.97;;;11.32;95.50
16690;BME280;8458;52.220;9.884;2023-05-24T09:44:25;101460.13;;;11.14;94.99
16690;BME280;8458;52.220;9.884;2023-05-24T09:46:52;101458.59;;;11.06;95.33
16690;BME280;8458;52.220;9.884;2023-05-24T09:49:19;101451.88;;;11.19;95.97
16690;BME280;8458;52.220;9.884;2023-05-24T09:51:46;101455.59;;;11.08;96.24
16690;BME280;8458;52.220;9.884;2023-05-24T09:54:13;101447.59;;;11.11;97.35
16690;BME280;8458;52.220;9.884;2023-05-24T09:56:40;101444.47;;;11.08;97.99
16690;BME280;8458;52.220;9.884;2023-05-24T09:59:08;101442.78;;;11.07;97.08
16690;BME280;8458;52.220;9.884;2023-05-24T10:01:35;101445.25;;;11.20;97.34
16690;BME280;8458;52.220;9.884;2023-05-24T10:04:02;101436.06;;;11.37;97.72
16690;BME280;8458;52.220;9.884;2023-05-24T10:06:32;101447.44;;;11.52;98.38
16690;BME280;8458;52.220;9.884;2023-05-24T10:09:02;101451.72;;;11.60;96.17
16690;BME280;8458;52.220;9.884;2023-05-24T10:11:31;101448.19;;;11.64;95.17
16690;BME280;8458;52.220;9.884;2023-05-24T10:13:58;101453.09;;;11.57;94.02
16690;BME280;8458;52.220;9.884;2023-05-24T10:16:25;101446.53;;;11.63;94.74
16690;BME280;8458;52.220;9.884;2023-05-24T10:18:52;101442.63;;;11.64;94.76
16690;BME280;8458;52.220;9.884;2023-05-24T10:21:22;101447.84;;;11.78;95.40
16690;BME280;8458;52.220;9.884;2023-05-24T10:23:51;101454.59;;;11.82;94.26
16690;BME280;8458;52.220;9.884;2023-05-24T10:26:23;101457.44;;;11.87;93.88
16690;BME280;8458;52.220;9.884;2023-05-24T10:28:54;101457.72;;;11.69;92.58
16690;BME280;8458;52.220;9.884;2023-05-24T10:31:24;101466.56;;;11.65;93.72
16690;BME280;8458;52.220;9.884;2023-05-24T10:33:56;101466.72;;;11.76;93.61
16690;BME280;8458;52.220;9.884;2023-05-24T10:36:23;101462.09;;;11.64;92.69
16690;BME280;8458;52.220;9.884;2023-05-24T10:38:51;101456.94;;;11.73;92.71
16690;BME280;8458;52.220;9.884;2023-05-24T10:41:18;101461.69;;;11.73;92.11
16690;BME280;8458;52.220;9.884;2023-05-24T10:43:45;101453.59;;;11.71;92.45
16690;BME280;8458;52.220;9.884;2023-05-24T10:46:14;101468.75;;;11.63;92.95
16690;BME280;8458;52.220;9.884;2023-05-24T10:48:42;101471.53;;;11.63;94.03
16690;BME280;8458;52.220;9.884;2023-05-24T10:51:32;101463.53;;;11.50;94.00
16690;BME280;8458;52.220;9.884;2023-05-24T10:54:15;101464.72;;;11.54;94.11
16690;BME280;8458;52.220;9.884;2023-05-24T10:56:44;101465.38;;;11.61;93.61
16690;BME280;8458;52.220;9.884;2023-05-24T10:59:30;101464.03;;;11.47;93.57
16690;BME280;8458;52.220;9.884;2023-05-24T11:01:59;101459.47;;;11.41;94.59
16690;BME280;8458;52.220;9.884;2023-05-24T11:04:29;101467.38;;;11.49;96.00
16690;BME280;8458;52.220;9.884;2023-05-24T11:07:00;101472.09;;;11.48;96.12
16690;BME280;8458;52.220;9.884;2023-05-24T11:09:29;101473.94;;;11.43;97.14
16690;BME280;8458;52.220;9.884;2023-05-24T11:11:59;101478.69;;;11.59;99.72
16690;BME280;8458;52.220;9.884;2023-05-24T11:14:29;101477.59;;;11.60;100.00
16690;BME280;8458;52.220;9.884;2023-05-24T11:16:57;101482.38;;;11.65;100.00
16690;BME280;8458;52.220;9.884;2023-05-24T11:19:30;101480.53;;;11.71;100.00
16690;BME280;8458;52.220;9.884;2023-05-24T11:21:58;101480.19;;;11.84;100.00
16690;BME280;8458;52.220;9.884;2023-05-24T11:24:26;101486.81;;;11.83;100.00
16690;BME280;8458;52.220;9.884;2023-05-24T11:26:53;101491.13;;;11.74;100.00
16690;BME280;8458;52.220;9.884;2023-05-24T11:29:21;101478.84;;;11.70;100.00
16690;BME280;8458;52.220;9.884;2023-05-24T11:31:49;101483.03;;;11.72;100.00
16690;BME280;8458;52.220;9.884;2023-05-24T11:34:16;101495.53;;;11.70;100.00
16690;BME280;8458;52.220;9.884;2023-05-24T11:36:43;101488.97;;;11.76;100.00
16690;BME280;8458;52.220;9.884;2023-05-24T11:39:12;101487.59;;;11.95;100.00
16690;BME280;8458;52.220;9.884;2023-05-24T11:41:39;101476.97;;;12.09;100.00
16690;BME280;8458;52.220;9.884;2023-05-24T11:44:07;101474.88;;;11.99;100.00
16690;BME280;8458;52.220;9.884;2023-05-24T11:46:34;101470.84;;;12.07;100.00
16690;BME280;8458;52.220;9.884;2023-05-24T11:49:01;101472.72;;;12.24;100.00
16690;BME280;8458;52.220;9.884;2023-05-24T11:51:28;101472.47;;;12.25;100.00
16690;BME280;8458;52.220;9.884;2023-05-24T11:53:55;101476.78;;;12.16;100.00
16690;BME280;8458;52.220;9.884;2023-05-24T11:56:23;101472.53;;;12.30;100.00
16690;BME280;8458;52.220;9.884;2023-05-24T11:58:55;101476.63;;;12.45;100.00
16690;BME280;8458;52.220;9.884;2023-05-24T12:01:25;101478.06;;;12.47;99.40
16690;BME280;8458;52.220;9.884;2023-05-24T12:03:52;101474.28;;;12.36;98.06
16690;BME280;8458;52.220;9.884;2023-05-24T12:06:20;101477.06;;;12.36;97.63
16690;BME280;8458;52.220;9.884;2023-05-24T12:08:47;101480.84;;;12.47;97.64
16690;BME280;8458;52.220;9.884;2023-05-24T12:11:14;101475.63;;;12.56;97.80
16690;BME280;8458;52.220;9.884;2023-05-24T12:13:42;101483.09;;;12.50;94.67
16690;BME280;8458;52.220;9.884;2023-05-24T12:16:10;101472.28;;;12.54;94.75
16690;BME280;8458;52.220;9.884;2023-05-24T12:18:38;101472.53;;;12.74;94.90
16690;BME280;8458;52.220;9.884;2023-05-24T12:21:07;101469.47;;;12.76;94.11
16690;BME280;8458;52.220;9.884;2023-05-24T12:23:35;101479.06;;;12.85;93.37
16690;BME280;8458;52.220;9.884;2023-05-24T12:26:02;101470.44;;;12.87;92.41
16690;BME280;8458;52.220;9.884;2023-05-24T12:28:31;101480.28;;;12.95;92.14
16690;BME280;8458;52.220;9.884;2023-05-24T12:31:01;101475.09;;;13.03;91.99
16690;BME280;8458;52.220;9.884;2023-05-24T12:33:28;101474.44;;;12.96;90.81
16690;BME280;8458;52.220;9.884;2023-05-24T12:35:55;101476.47;;;12.79;89.44
16690;BME280;8458;52.220;9.884;2023-05-24T12:38:23;101481.78;;;12.80;90.23
16690;BME280;8458;52.220;9.884;2023-05-24T12:40:51;101474.09;;;12.87;90.89
16690;BME280;8458;52.220;9.884;2023-05-24T12:43:18;101464.78;;;13.04;91.24
16690;BME280;8458;52.220;9.884;2023-05-24T12:45:45;101476.81;;;13.09;90.85
16690;BME280;8458;52.220;9.884;2023-05-24T12:48:13;101472.09;;;13.10;89.78
16690;BME280;8458;52.220;9.884;2023-05-24T12:50:40;101458.50;;;13.14;89.08
16690;BME280;8458;52.220;9.884;2023-05-24T12:53:06;101459.94;;;13.21;90.38
16690;BME280;8458;52.220;9.884;2023-05-24T12:55:32;101457.09;;;13.16;87.77
16690;BME280;8458;52.220;9.884;2023-05-24T12:57:59;101451.38;;;13.28;87.26
16690;BME280;8458;52.220;9.884;2023-05-24T13:00:28;101455.97;;;13.39;87.91
16690;BME280;8458;52.220;9.884;2023-05-24T13:02:55;101453.13;;;13.34;87.12
16690;BME280;8458;52.220;9.884;2023-05-24T13:05:24;101464.34;;;13.44;87.37
16690;BME280;8458;52.220;9.884;2023-05-24T13:07:52;101457.97;;;13.49;87.29